sensor_id;sensor_type;location;lat;lon;timestamp;P1;durP1;ratioP1;P2;durP2;ratioP2
6878;SDS011;3478;51.462;7.338;2023-04-03T00:00:25;14.63;;;7.83;;
6878;SDS011;3478;51.462;7.338;2023-04-03T00:05:28;11.07;;;8.33;;
6878;SDS011;3478;51.462;7.338;2023-04-03T00:10:30;11.13;;;8.77;;
6878;SDS011;3478;51.462;7.338;2023-04-03T00:15:32;10.70;;;7.73;;
6878;SDS011;3478;51.462;7.338;2023-04-03T00:20:38;7.07;;;6.47;;
6878;SDS011;3478;51.462;7.338;2023-04-03T00:25:40;8.33;;;7.60;;
6878;SDS011;3478;51.462;7.338;2023-04-03T00:30:41;8.30;;;7.57;;
6878;SDS011;3478;51.462;7.338;2023-04-03T00:35:45;8.10;;;7.00;;
6878;SDS011;3478;51.462;7.338;2023-04-03T00:40:47;8.43;;;7.80;;
6878;SDS011;3478;51.462;7.338;2023-04-03T00:45:50;7.90;;;6.67;;
6878;SDS011;3478;51.462;7.338;2023-04-03T00:50:54;10.93;;;7.90;;
6878;SDS011;3478;51.462;7.338;2023-04-03T00:55:57;6.20;;;5.80;;
6878;SDS011;3478;51.462;7.338;2023-04-03T01:01:02;8.13;;;6.83;;
6878;SDS011;3478;51.462;7.338;2023-04-03T01:06:08;6.10;;;5.60;;
6878;SDS011;3478;51.462;7.338;2023-04-03T01:11:10;7.67;;;6.47;;
6878;SDS011;3478;51.462;7.338;2023-04-03T01:16:12;8.57;;;7.37;;
6878;SDS011;3478;51.462;7.338;2023-04-03T01:21:30;9.60;;;7.40;;
6878;SDS011;3478;51.462;7.338;2023-04-03T01:26:51;6.43;;;6.03;;
6878;SDS011;3478;51.462;7.338;2023-04-03T01:31:56;8.73;;;4.97;;
6878;SDS011;3478;51.462;7.338;2023-04-03T01:36:59;6.80;;;6.10;;
6878;SDS011;3478;51.462;7.338;2023-04-03T01:42:01;4.87;;;4.47;;
6878;SDS011;3478;51.462;7.338;2023-04-03T01:47:06;3.47;;;3.17;;
6878;SDS011;3478;51.462;7.338;2023-04-03T01:52:08;12.27;;;2.97;;
6878;SDS011;3478;51.462;7.338;2023-04-03T01:57:10;5.47;;;2.77;;
6878;SDS011;3478;51.462;7.338;2023-04-03T02:02:14;4.70;;;2.70;;
6878;SDS011;3478;51.462;7.338;2023-04-03T02:07:16;2.23;;;2.10;;
6878;SDS011;3478;51.462;7.338;2023-04-03T02:12:18;2.57;;;2.00;;
6878;SDS011;3478;51.462;7.338;2023-04-03T02:17:21;3.83;;;2.20;;
6878;SDS011;3478;51.462;7.338;2023-04-03T02:22:23;2.30;;;2.10;;
6878;SDS011;3478;51.462;7.338;2023-04-03T02:27:25;4.63;;;1.70;;
6878;SDS011;3478;51.462;7.338;2023-04-03T02:32:29;3.53;;;1.50;;
6878;SDS011;3478;51.462;7.338;2023-04-03T02:37:30;1.67;;;1.57;;
6878;SDS011;3478;51.462;7.338;2023-04-03T02:42:32;2.00;;;1.80;;
6878;SDS011;3478;51.462;7.338;2023-04-03T02:47:36;3.27;;;1.60;;
6878;SDS011;3478;51.462;7.338;2023-04-03T02:52:38;3.43;;;1.50;;
6878;SDS011;3478;51.462;7.338;2023-04-03T02:57:40;1.57;;;1.47;;
6878;SDS011;3478;51.462;7.338;2023-04-03T03:02:43;1.67;;;1.40;;
6878;SDS011;3478;51.462;7.338;2023-04-03T03:07:45;4.53;;;2.07;;
6878;SDS011;3478;51.462;7.338;2023-04-03T03:12:47;2.13;;;1.00;;
6878;SDS011;3478;51.462;7.338;2023-04-03T03:17:50;3.90;;;1.33;;
6878;SDS011;3478;51.462;7.338;2023-04-03T03:22:52;1.37;;;1.10;;
6878;SDS011;3478;51.462;7.338;2023-04-03T03:27:54;2.03;;;1.83;;
6878;SDS011;3478;51.462;7.338;2023-04-03T03:32:58;7.50;;;1.60;;
6878;SDS011;3478;51.462;7.338;2023-04-03T03:37:59;1.20;;;0.70;;
6878;SDS011;3478;51.462;7.338;2023-04-03T03:43:01;6.00;;;1.40;;
6878;SDS011;3478;51.462;7.338;2023-04-03T03:48:05;6.10;;;1.40;;
6878;SDS011;3478;51.462;7.338;2023-04-03T03:53:07;2.20;;;1.00;;
6878;SDS011;3478;51.462;7.338;2023-04-03T03:58:09;6.00;;;1.90;;
6878;SDS011;3478;51.462;7.338;2023-04-03T04:03:12;2.13;;;1.67;;
6878;SDS011;3478;51.462;7.338;2023-04-03T04:08:14;7.03;;;1.90;;
6878;SDS011;3478;51.462;7.338;2023-04-03T04:13:16;1.60;;;1.10;;
6878;SDS011;3478;51.462;7.338;2023-04-03T04:18:19;1.90;;;1.17;;
6878;SDS011;3478;51.462;7.338;2023-04-03T04:23:22;1.93;;;1.10;;
6878;SDS011;3478;51.462;7.338;2023-04-03T04:28:24;0.87;;;0.70;;
6878;SDS011;3478;51.462;7.338;2023-04-03T04:33:28;3.00;;;1.23;;
6878;SDS011;3478;51.462;7.338;2023-04-03T04:38:30;2.53;;;1.30;;
6878;SDS011;3478;51.462;7.338;2023-04-03T04:43:32;1.87;;;1.47;;
6878;SDS011;3478;51.462;7.338;2023-04-03T04:48:36;2.07;;;1.17;;
6878;SDS011;3478;51.462;7.338;2023-04-03T04:53:38;7.43;;;1.97;;
6878;SDS011;3478;51.462;7.338;2023-04-03T04:58:39;2.53;;;1.30;;
6878;SDS011;3478;51.462;7.338;2023-04-03T05:03:43;1.73;;;1.40;;
6878;SDS011;3478;51.462;7.338;2023-04-03T05:08:45;1.90;;;1.40;;
6878;SDS011;3478;51.462;7.338;2023-04-03T05:13:47;3.27;;;1.03;;
6878;SDS011;3478;51.462;7.338;2023-04-03T05:18:50;5.77;;;2.87;;
6878;SDS011;3478;51.462;7.338;2023-04-03T05:23:52;3.63;;;1.43;;
6878;SDS011;3478;51.462;7.338;2023-04-03T05:28:54;5.90;;;2.33;;
6878;SDS011;3478;51.462;7.338;2023-04-03T05:33:57;2.30;;;1.20;;
6878;SDS011;3478;51.462;7.338;2023-04-03T05:38:59;4.13;;;1.40;;
6878;SDS011;3478;51.462;7.338;2023-04-03T05:44:01;1.57;;;1.47;;
6878;SDS011;3478;51.462;7.338;2023-04-03T05:49:05;4.30;;;1.10;;
6878;SDS011;3478;51.462;7.338;2023-04-03T05:54:09;7.63;;;1.43;;
6878;SDS011;3478;51.462;7.338;2023-04-03T05:59:14;2.90;;;2.47;;
6878;SDS011;3478;51.462;7.338;2023-04-03T06:04:20;2.30;;;1.00;;
6878;SDS011;3478;51.462;7.338;2023-04-03T06:09:22;5.80;;;1.93;;
6878;SDS011;3478;51.462;7.338;2023-04-03T06:14:26;2.60;;;1.27;;
6878;SDS011;3478;51.462;7.338;2023-04-03T06:19:29;7.03;;;2.00;;
6878;SDS011;3478;51.462;7.338;2023-04-03T06:24:31;5.83;;;1.40;;
6878;SDS011;3478;51.462;7.338;2023-04-03T06:29:33;2.27;;;1.87;;
6878;SDS011;3478;51.462;7.338;2023-04-03T06:34:38;5.53;;;1.60;;
6878;SDS011;3478;51.462;7.338;2023-04-03T06:39:41;8.13;;;1.97;;
6878;SDS011;3478;51.462;7.338;2023-04-03T06:44:43;2.00;;;0.87;;
6878;SDS011;3478;51.462;7.338;2023-04-03T06:49:47;2.53;;;1.70;;
6878;SDS011;3478;51.462;7.338;2023-04-03T06:54:48;6.03;;;2.30;;
6878;SDS011;3478;51.462;7.338;2023-04-03T06:59:57;10.40;;;1.10;;
6878;SDS011;3478;51.462;7.338;2023-04-03T07:05:00;2.70;;;1.43;;
6878;SDS011;3478;51.462;7.338;2023-04-03T07:10:03;6.03;;;1.97;;
6878;SDS011;3478;51.462;7.338;2023-04-03T07:15:06;1.63;;;1.03;;
6878;SDS011;3478;51.462;7.338;2023-04-03T07:20:10;4.50;;;1.13;;
6878;SDS011;3478;51.462;7.338;2023-04-03T07:25:13;1.90;;;1.10;;
6878;SDS011;3478;51.462;7.338;2023-04-03T07:30:15;5.50;;;1.20;;
6878;SDS011;3478;51.462;7.338;2023-04-03T07:35:19;3.80;;;1.27;;
6878;SDS011;3478;51.462;7.338;2023-04-03T07:40:21;2.40;;;1.47;;
6878;SDS011;3478;51.462;7.338;2023-04-03T07:45:23;2.07;;;1.33;;
6878;SDS011;3478;51.462;7.338;2023-04-03T07:50:26;1.43;;;0.70;;
6878;SDS011;3478;51.462;7.338;2023-04-03T07:55:31;3.83;;;0.97;;
6878;SDS011;3478;51.462;7.338;2023-04-03T08:00:33;5.87;;;0.90;;
6878;SDS011;3478;51.462;7.338;2023-04-03T08:05:37;5.50;;;1.07;;
6878;SDS011;3478;51.462;7.338;2023-04-03T08:10:41;5.37;;;1.00;;
6878;SDS011;3478;51.462;7.338;2023-04-03T08:15:43;2.20;;;0.80;;
6878;SDS011;3478;51.462;7.338;2023-04-03T08:20:46;6.63;;;1.07;;
6878;SDS011;3478;51.462;7.338;2023-04-03T08:25:48;8.50;;;1.43;;
6878;SDS011;3478;51.462;7.338;2023-04-03T08:30:51;4.70;;;1.00;;
6878;SDS011;3478;51.462;7.338;2023-04-03T08:35:54;4.97;;;1.83;;
6878;SDS011;3478;51.462;7.338;2023-04-03T08:41:00;2.70;;;0.80;;
6878;SDS011;3478;51.462;7.338;2023-04-03T08:46:06;5.00;;;1.07;;
6878;SDS011;3478;51.462;7.338;2023-04-03T08:51:17;2.80;;;0.63;;
6878;SDS011;3478;51.462;7.338;2023-04-03T08:56:21;4.67;;;1.27;;
6878;SDS011;3478;51.462;7.338;2023-04-03T09:01:26;3.07;;;0.77;;
6878;SDS011;3478;51.462;7.338;2023-04-03T09:06:32;6.07;;;1.07;;
6878;SDS011;3478;51.462;7.338;2023-04-03T09:11:36;1.20;;;0.80;;
6878;SDS011;3478;51.462;7.338;2023-04-03T09:16:54;1.63;;;0.80;;
6878;SDS011;3478;51.462;7.338;2023-04-03T09:22:01;1.20;;;0.60;;
6878;SDS011;3478;51.462;7.338;2023-04-03T09:27:17;6.87;;;0.70;;
6878;SDS011;3478;51.462;7.338;2023-04-03T09:32:21;3.63;;;0.70;;
6878;SDS011;3478;51.462;7.338;2023-04-03T09:37:37;1.20;;;0.60;;
6878;SDS011;3478;51.462;7.338;2023-04-03T09:42:40;3.53;;;0.80;;
6878;SDS011;3478;51.462;7.338;2023-04-03T09:47:44;2.80;;;0.70;;
6878;SDS011;3478;51.462;7.338;2023-04-03T09:52:48;2.00;;;0.63;;
6878;SDS011;3478;51.462;7.338;2023-04-03T09:57:57;1.73;;;0.60;;
6878;SDS011;3478;51.462;7.338;2023-04-03T10:03:00;1.53;;;0.97;;
6878;SDS011;3478;51.462;7.338;2023-04-03T10:08:08;4.03;;;0.63;;
6878;SDS011;3478;51.462;7.338;2023-04-03T10:13:12;0.90;;;0.50;;
6878;SDS011;3478;51.462;7.338;2023-04-03T10:18:22;1.43;;;0.80;;
6878;SDS011;3478;51.462;7.338;2023-04-03T10:23:33;0.90;;;0.67;;
6878;SDS011;3478;51.462;7.338;2023-04-03T10:28:43;1.87;;;0.70;;
6878;SDS011;3478;51.462;7.338;2023-04-03T10:33:52;1.57;;;1.00;;
6878;SDS011;3478;51.462;7.338;2023-04-03T10:39:01;0.90;;;0.50;;
6878;SDS011;3478;51.462;7.338;2023-04-03T10:44:13;2.40;;;0.60;;
6878;SDS011;3478;51.462;7.338;2023-04-03T10:49:25;2.27;;;0.97;;
6878;SDS011;3478;51.462;7.338;2023-04-03T10:54:41;1.53;;;0.80;;
6878;SDS011;3478;51.462;7.338;2023-04-03T10:59:48;0.90;;;0.60;;
6878;SDS011;3478;51.462;7.338;2023-04-03T11:04:53;3.33;;;0.70;;
6878;SDS011;3478;51.462;7.338;2023-04-03T11:10:03;1.10;;;0.77;;
6878;SDS011;3478;51.462;7.338;2023-04-03T11:15:13;0.80;;;0.50;;
6878;SDS011;3478;51.462;7.338;2023-04-03T11:20:18;1.80;;;0.60;;
6878;SDS011;3478;51.462;7.338;2023-04-03T11:25:29;1.07;;;0.83;;
6878;SDS011;3478;51.462;7.338;2023-04-03T11:30:33;2.37;;;1.70;;
6878;SDS011;3478;51.462;7.338;2023-04-03T11:35:42;2.20;;;0.50;;
6878;SDS011;3478;51.462;7.338;2023-04-03T11:40:48;1.20;;;0.63;;
6878;SDS011;3478;51.462;7.338;2023-04-03T11:45:55;0.73;;;0.40;;
6878;SDS011;3478;51.462;7.338;2023-04-03T11:51:01;1.10;;;0.70;;
6878;SDS011;3478;51.462;7.338;2023-04-03T11:56:33;2.10;;;0.57;;
6878;SDS011;3478;51.462;7.338;2023-04-03T12:01:45;0.90;;;0.40;;
6878;SDS011;3478;51.462;7.338;2023-04-03T12:12:31;1.10;;;0.60;;
6878;SDS011;3478;51.462;7.338;2023-04-03T12:17:35;0.83;;;0.40;;
6878;SDS011;3478;51.462;7.338;2023-04-03T12:22:38;1.67;;;0.60;;
6878;SDS011;3478;51.462;7.338;2023-04-03T12:28:01;1.10;;;0.57;;
6878;SDS011;3478;51.462;7.338;2023-04-03T12:33:17;5.43;;;0.60;;
6878;SDS011;3478;51.462;7.338;2023-04-03T12:38:33;2.80;;;0.73;;
6878;SDS011;3478;51.462;7.338;2023-04-03T12:43:49;0.87;;;0.40;;
6878;SDS011;3478;51.462;7.338;2023-04-03T12:49:00;0.70;;;0.60;;
6878;SDS011;3478;51.462;7.338;2023-04-03T12:54:03;0.73;;;0.47;;
6878;SDS011;3478;51.462;7.338;2023-04-03T12:59:18;1.00;;;0.60;;
6878;SDS011;3478;51.462;7.338;2023-04-03T13:04:21;2.93;;;0.50;;
6878;SDS011;3478;51.462;7.338;2023-04-03T13:09:24;0.93;;;0.50;;
6878;SDS011;3478;51.462;7.338;2023-04-03T13:14:29;0.80;;;0.40;;
6878;SDS011;3478;51.462;7.338;2023-04-03T13:19:32;2.33;;;0.43;;
6878;SDS011;3478;51.462;7.338;2023-04-03T13:24:35;2.53;;;0.40;;
6878;SDS011;3478;51.462;7.338;2023-04-03T13:29:41;1.73;;;0.40;;
6878;SDS011;3478;51.462;7.338;2023-04-03T13:34:43;2.10;;;0.50;;
6878;SDS011;3478;51.462;7.338;2023-04-03T13:39:45;1.77;;;0.50;;
6878;SDS011;3478;51.462;7.338;2023-04-03T13:45:17;8.20;;;0.57;;
6878;SDS011;3478;51.462;7.338;2023-04-03T13:50:21;0.70;;;0.40;;
6878;SDS011;3478;51.462;7.338;2023-04-03T13:55:26;0.90;;;0.40;;
6878;SDS011;3478;51.462;7.338;2023-04-03T14:00:35;1.13;;;0.50;;
6878;SDS011;3478;51.462;7.338;2023-04-03T14:05:39;1.30;;;0.50;;
6878;SDS011;3478;51.462;7.338;2023-04-03T14:10:41;1.90;;;0.57;;
6878;SDS011;3478;51.462;7.338;2023-04-03T14:15:45;0.80;;;0.40;;
6878;SDS011;3478;51.462;7.338;2023-04-03T14:20:50;1.37;;;0.40;;
6878;SDS011;3478;51.462;7.338;2023-04-03T14:25:52;4.33;;;0.70;;
6878;SDS011;3478;51.462;7.338;2023-04-03T14:30:56;4.90;;;0.93;;
6878;SDS011;3478;51.462;7.338;2023-04-03T14:35:58;1.83;;;0.50;;
6878;SDS011;3478;51.462;7.338;2023-04-03T14:41:00;1.47;;;0.60;;
6878;SDS011;3478;51.462;7.338;2023-04-03T14:46:03;2.43;;;0.60;;
6878;SDS011;3478;51.462;7.338;2023-04-03T14:51:06;1.10;;;0.50;;
6878;SDS011;3478;51.462;7.338;2023-04-03T14:56:11;1.37;;;0.43;;
6878;SDS011;3478;51.462;7.338;2023-04-03T15:01:16;2.27;;;0.60;;
6878;SDS011;3478;51.462;7.338;2023-04-03T15:06:19;1.67;;;0.50;;
6878;SDS011;3478;51.462;7.338;2023-04-03T15:11:22;3.93;;;0.50;;
6878;SDS011;3478;51.462;7.338;2023-04-03T15:16:25;1.73;;;0.47;;
6878;SDS011;3478;51.462;7.338;2023-04-03T15:21:28;1.70;;;0.57;;
6878;SDS011;3478;51.462;7.338;2023-04-03T15:26:30;4.57;;;0.60;;
6878;SDS011;3478;51.462;7.338;2023-04-03T15:31:34;1.60;;;0.50;;
6878;SDS011;3478;51.462;7.338;2023-04-03T15:36:36;1.13;;;0.50;;
6878;SDS011;3478;51.462;7.338;2023-04-03T15:41:37;1.37;;;0.60;;
6878;SDS011;3478;51.462;7.338;2023-04-03T15:46:41;1.13;;;0.50;;
6878;SDS011;3478;51.462;7.338;2023-04-03T15:51:43;1.40;;;0.60;;
6878;SDS011;3478;51.462;7.338;2023-04-03T15:56:45;1.93;;;0.40;;
6878;SDS011;3478;51.462;7.338;2023-04-03T16:01:48;0.83;;;0.50;;
6878;SDS011;3478;51.462;7.338;2023-04-03T16:06:51;2.13;;;0.60;;
6878;SDS011;3478;51.462;7.338;2023-04-03T16:11:53;0.90;;;0.50;;
6878;SDS011;3478;51.462;7.338;2023-04-03T16:16:57;1.73;;;0.70;;
6878;SDS011;3478;51.462;7.338;2023-04-03T16:22:00;1.70;;;0.50;;
6878;SDS011;3478;51.462;7.338;2023-04-03T16:27:02;1.40;;;0.80;;
6878;SDS011;3478;51.462;7.338;2023-04-03T16:32:06;1.63;;;0.97;;
6878;SDS011;3478;51.462;7.338;2023-04-03T16:37:08;1.37;;;1.17;;
6878;SDS011;3478;51.462;7.338;2023-04-03T16:42:10;1.43;;;0.70;;
6878;SDS011;3478;51.462;7.338;2023-04-03T16:47:13;1.27;;;1.00;;
6878;SDS011;3478;51.462;7.338;2023-04-03T16:52:19;6.63;;;0.60;;
6878;SDS011;3478;51.462;7.338;2023-04-03T16:57:21;4.90;;;0.90;;
6878;SDS011;3478;51.462;7.338;2023-04-03T17:02:26;1.83;;;0.90;;
6878;SDS011;3478;51.462;7.338;2023-04-03T17:07:29;1.53;;;0.50;;
6878;SDS011;3478;51.462;7.338;2023-04-03T17:12:31;2.13;;;0.50;;
6878;SDS011;3478;51.462;7.338;2023-04-03T17:17:34;1.00;;;0.60;;
6878;SDS011;3478;51.462;7.338;2023-04-03T17:22:37;0.70;;;0.60;;
6878;SDS011;3478;51.462;7.338;2023-04-03T17:27:39;1.10;;;0.60;;
6878;SDS011;3478;51.462;7.338;2023-04-03T17:32:42;0.90;;;0.57;;
6878;SDS011;3478;51.462;7.338;2023-04-03T17:37:44;2.47;;;0.70;;
6878;SDS011;3478;51.462;7.338;2023-04-03T17:42:47;1.30;;;0.60;;
6878;SDS011;3478;51.462;7.338;2023-04-03T17:47:51;1.63;;;0.80;;
6878;SDS011;3478;51.462;7.338;2023-04-03T17:52:53;1.40;;;0.90;;
6878;SDS011;3478;51.462;7.338;2023-04-03T17:57:55;3.20;;;0.90;;
6878;SDS011;3478;51.462;7.338;2023-04-03T18:02:58;2.07;;;0.70;;
6878;SDS011;3478;51.462;7.338;2023-04-03T18:08:00;7.27;;;2.83;;
6878;SDS011;3478;51.462;7.338;2023-04-03T18:13:03;6.53;;;0.80;;
6878;SDS011;3478;51.462;7.338;2023-04-03T18:18:06;1.73;;;1.17;;
6878;SDS011;3478;51.462;7.338;2023-04-03T18:23:09;1.37;;;0.60;;
6878;SDS011;3478;51.462;7.338;2023-04-03T18:28:11;4.60;;;1.80;;
6878;SDS011;3478;51.462;7.338;2023-04-03T18:33:14;3.17;;;0.73;;
6878;SDS011;3478;51.462;7.338;2023-04-03T18:38:16;0.77;;;0.60;;
6878;SDS011;3478;51.462;7.338;2023-04-03T18:43:18;1.83;;;1.00;;
6878;SDS011;3478;51.462;7.338;2023-04-03T18:48:21;1.50;;;0.80;;
6878;SDS011;3478;51.462;7.338;2023-04-03T18:53:23;1.33;;;0.70;;
6878;SDS011;3478;51.462;7.338;2023-04-03T18:58:25;2.03;;;1.00;;
6878;SDS011;3478;51.462;7.338;2023-04-03T19:03:29;2.73;;;1.10;;
6878;SDS011;3478;51.462;7.338;2023-04-03T19:08:31;1.40;;;1.07;;
6878;SDS011;3478;51.462;7.338;2023-04-03T19:13:34;1.90;;;0.87;;
6878;SDS011;3478;51.462;7.338;2023-04-03T19:18:37;3.63;;;0.77;;
6878;SDS011;3478;51.462;7.338;2023-04-03T19:23:39;1.10;;;0.63;;
6878;SDS011;3478;51.462;7.338;2023-04-03T19:28:43;1.13;;;0.60;;
6878;SDS011;3478;51.462;7.338;2023-04-03T19:33:47;2.50;;;0.63;;
6878;SDS011;3478;51.462;7.338;2023-04-03T19:38:50;2.33;;;1.13;;
6878;SDS011;3478;51.462;7.338;2023-04-03T19:43:53;2.10;;;0.80;;
6878;SDS011;3478;51.462;7.338;2023-04-03T19:48:57;1.30;;;0.60;;
6878;SDS011;3478;51.462;7.338;2023-04-03T19:53:59;1.20;;;0.90;;
6878;SDS011;3478;51.462;7.338;2023-04-03T19:59:01;1.87;;;1.33;;
6878;SDS011;3478;51.462;7.338;2023-04-03T20:04:04;2.60;;;1.33;;
6878;SDS011;3478;51.462;7.338;2023-04-03T20:09:06;1.37;;;1.13;;
6878;SDS011;3478;51.462;7.338;2023-04-03T20:14:08;3.70;;;1.63;;
6878;SDS011;3478;51.462;7.338;2023-04-03T20:19:12;2.80;;;1.33;;
6878;SDS011;3478;51.462;7.338;2023-04-03T20:24:15;4.10;;;1.07;;
6878;SDS011;3478;51.462;7.338;2023-04-03T20:29:17;4.13;;;0.90;;
6878;SDS011;3478;51.462;7.338;2023-04-03T20:34:21;2.00;;;0.97;;
6878;SDS011;3478;51.462;7.338;2023-04-03T20:39:22;2.97;;;1.30;;
6878;SDS011;3478;51.462;7.338;2023-04-03T20:44:24;1.83;;;0.80;;
6878;SDS011;3478;51.462;7.338;2023-04-03T20:49:28;4.10;;;1.30;;
6878;SDS011;3478;51.462;7.338;2023-04-03T20:54:30;1.90;;;1.00;;
6878;SDS011;3478;51.462;7.338;2023-04-03T20:59:32;3.73;;;1.20;;
6878;SDS011;3478;51.462;7.338;2023-04-03T21:04:39;1.83;;;0.93;;
6878;SDS011;3478;51.462;7.338;2023-04-03T21:20:51;2.57;;;0.97;;
6878;SDS011;3478;51.462;7.338;2023-04-03T21:25:54;1.47;;;1.00;;
6878;SDS011;3478;51.462;7.338;2023-04-03T21:30:56;1.40;;;1.00;;
6878;SDS011;3478;51.462;7.338;2023-04-03T21:35:59;1.77;;;0.93;;
6878;SDS011;3478;51.462;7.338;2023-04-03T21:41:02;1.53;;;1.03;;
6878;SDS011;3478;51.462;7.338;2023-04-03T21:46:04;2.33;;;1.53;;
6878;SDS011;3478;51.462;7.338;2023-04-03T21:51:07;1.70;;;0.90;;
6878;SDS011;3478;51.462;7.338;2023-04-03T21:56:10;5.13;;;1.37;;
6878;SDS011;3478;51.462;7.338;2023-04-03T22:01:13;1.03;;;0.70;;
6878;SDS011;3478;51.462;7.338;2023-04-03T22:06:16;3.70;;;1.50;;
6878;SDS011;3478;51.462;7.338;2023-04-03T22:11:19;5.37;;;1.40;;
6878;SDS011;3478;51.462;7.338;2023-04-03T22:16:23;1.87;;;1.03;;
6878;SDS011;3478;51.462;7.338;2023-04-03T22:21:27;3.50;;;1.10;;
6878;SDS011;3478;51.462;7.338;2023-04-03T22:26:29;2.10;;;1.10;;
6878;SDS011;3478;51.462;7.338;2023-04-03T22:31:31;1.80;;;1.27;;
6878;SDS011;3478;51.462;7.338;2023-04-03T22:36:35;1.97;;;1.60;;
6878;SDS011;3478;51.462;7.338;2023-04-03T22:41:37;3.50;;;1.50;;
6878;SDS011;3478;51.462;7.338;2023-04-03T22:46:39;4.80;;;1.37;;
6878;SDS011;3478;51.462;7.338;2023-04-03T22:51:42;4.30;;;1.30;;
6878;SDS011;3478;51.462;7.338;2023-04-03T22:56:44;3.20;;;1.60;;
6878;SDS011;3478;51.462;7.338;2023-04-03T23:01:46;1.53;;;1.30;;
6878;SDS011;3478;51.462;7.338;2023-04-03T23:06:49;2.83;;;1.73;;
6878;SDS011;3478;51.462;7.338;2023-04-03T23:11:52;1.93;;;1.63;;
6878;SDS011;3478;51.462;7.338;2023-04-03T23:16:54;2.03;;;1.33;;
6878;SDS011;3478;51.462;7.338;2023-04-03T23:21:57;1.90;;;1.33;;
6878;SDS011;3478;51.462;7.338;2023-04-03T23:26:59;2.50;;;1.30;;
6878;SDS011;3478;51.462;7.338;2023-04-03T23:32:00;1.03;;;0.93;;
6878;SDS011;3478;51.462;7.338;2023-04-03T23:37:04;2.27;;;1.47;;
6878;SDS011;3478;51.462;7.338;2023-04-03T23:42:06;4.13;;;1.63;;
6878;SDS011;3478;51.462;7.338;2023-04-03T23:47:11;2.17;;;1.40;;
6878;SDS011;3478;51.462;7.338;2023-04-03T23:52:14;2.87;;;2.63;;
6878;SDS011;3478;51.462;7.338;2023-04-03T23:57:16;5.10;;;1.70;;
